Aflex, Kentucky
Current Conditions -  °F | °C
As of 1:15 AM on Saturday 01 Nov 2014 (Local Time) from KPBX Reporting Station
Light Rain Light Rain  
Wind Chill: 29°   Ceiling: 300
Heat Index: 34°   Visibility: 2.5mi
Dew Point: 33°   Wind: 6mph
Humidity: 99%   Direction: 270°W
Pressure: 29.88"   Gusts: NA
Location:  37.632°N, 82.2603°W
Report Text: KPBX 010515Z AUTO 27005KT 2 1/2SM -RA OVC003 01/01 A2988 RMK AO2 VIS 3/4V5 T00100008
Loading
Personal Weather Stations






























Interactive Weather Map
Tropical Storm Tracking
New forecast layout! Learn more

10-Day Weather Forecast

Advertisements
Track Severe Weather on mobile